Airfield :
LOGIN :

Register | Disclaimer

   EN    FR    IT 

 










Legend :    VFR   Marginal VFR   IFR   Intensive IFR   Very Intensive IFR
Visi :
Ceiling :
>= 8 km
>= 3000ft
5 to 8 km
1000 to 3000 ft
1500m to 5 km
500 to 1000 ft
800 to 1500m
200 to 500 ft
< 800m
< 200 ft
Symbols :   Thunderstorms  Fog  Heavy snow  Heavy precipitations  Wind > 20 kt
SIGMETs :     Misc.  Thunderstorms  Icing  Turbulence  Mountain Waves  Volcanic Ashes







- Airport Elevation : 257 ft
- IATA code : MAN
- Download approach charts


EGCC - Manchester

CURRENT METAR :
  • 192350Z AUTO 18008KT 140V220 9999 -RA //////TCU 07/04 Q1013 TEMPO 7000 RA BKN014

EXPIRED METARs :
  • 192320Z AUTO 19008KT 150V220 9999 -RA NCD 07/04 Q1013 NOSIG
  • 192250Z AUTO 18007KT 150V230 9999 -RA SCT029 07/04 Q1014 NOSIG
  • 192220Z AUTO 18007KT 150V210 9999 -RA BKN029 07/04 Q1014 TEMPO 7000 RA BKN014
  • 192150Z AUTO 19007KT 150V220 9999 -RA BKN030 07/04 Q1014 TEMPO 7000 BKN014
  • 192120Z AUTO 18007KT 140V220 9999 -RA BKN029 BKN047 07/04 Q1014 TEMPO 7000 RA BKN014
  • 192050Z AUTO 18006KT 120V230 9999 -RA BKN029 08/04 Q1014 TEMPO 7000 RA BKN014

TAF TAF EGCC
Valid from the 20 at 00:00 until the 21 at 06:00 UTC


192259Z 2000/2106 18010KT 9999 SCT035
PROB40
TEMPO 2000/2018 7000 RA BKN014
TEMPO 2018/2106 BKN008
ATIS : +44 161 499 2324
No reported NOTAMs for that airfield.



MET'MAP, your aeronautical weather chart ! - Copyright ORBIFLY December 2007 - Disclaimer

ORBIFLY MET'MAP TEAM :

Programming & Development : Alexandra Zaïnal
Concept & Development : Baudouin d'Aumeries
Co-Development & Prog : Marc-Olivier Méhu
Technical & hardware support : Manuel Goepfert

Contact : metmap@orbifly.com




SOURCES & CREDITS :

   NOAA